Time,TemperatureF,DewpointF,PressureIn,WindDirection,WindDirectionDegrees,WindSpeedMPH,WindSpeedGustMPH,Humidity,HourlyPrecipIn,Conditions,Clouds,dailyrainin,SoftwareType,DateUTC
2013-03-11 00:07:00,45.1,45.1,30.35,SSE,158,0.0,0.0,100,0.00,,,0.00,Wunderground v.1.15,2013-03-11 07:07:00,
2013-03-11 00:17:00,45.2,45.2,30.35,SSE,158,0.0,0.0,100,0.00,,,0.00,Wunderground v.1.15,2013-03-11 07:17:00,
2013-03-11 00:37:00,45.2,45.2,30.36,SSE,158,0.0,0.0,100,0.00,,,0.00,Wunderground v.1.15,2013-03-11 07:37:00,
2013-03-11 00:42:00,45.2,45.2,30.36,SSE,158,0.0,0.0,100,0.00,,,0.00,Wunderground v.1.15,2013-03-11 07:42:00,
2013-03-11 00:52:00,45.2,45.2,30.36,SSE,158,0.0,0.0,100,0.00,,,0.00,Wunderground v.1.15,2013-03-11 07:52:00,
2013-03-11 00:57:00,45.4,45.4,30.36,SSE,158,0.0,0.0,100,0.00,,,0.00,Wunderground v.1.15,2013-03-11 07:57:00,
2013-03-11 01:07:00,45.4,45.4,30.36,SSE,158,0.0,0.0,100,0.00,,,0.00,Wunderground v.1.15,2013-03-11 08:07:00,
2013-03-11 01:17:00,45.5,45.5,30.35,SSE,158,0.0,0.0,100,0.00,,,0.00,Wunderground v.1.15,2013-03-11 08:17:00,
2013-03-11 01:22:00,45.5,45.5,30.35,SSE,158,0.0,0.0,100,0.00,,,0.00,Wunderground v.1.15,2013-03-11 08:22:00,
2013-03-11 01:32:00,45.5,45.5,30.35,SSE,158,0.0,0.0,100,0.00,,,0.00,Wunderground v.1.15,2013-03-11 08:32:00,
2013-03-11 01:37:00,45.4,45.4,30.35,SSE,158,0.0,0.0,100,0.00,,,0.00,Wunderground v.1.15,2013-03-11 08:37:00,
2013-03-11 01:47:00,45.5,45.5,30.35,SSE,158,0.0,0.0,100,0.00,,,0.00,Wunderground v.1.15,2013-03-11 08:47:00,
2013-03-11 01:57:00,45.5,45.5,30.35,ESE,112,0.0,0.0,100,0.00,,,0.00,Wunderground v.1.15,2013-03-11 08:57:00,
2013-03-11 02:02:00,45.5,45.5,30.36,ESE,109,0.0,0.0,100,0.00,,,0.00,Wunderground v.1.15,2013-03-11 09:02:00,
2013-03-11 02:07:00,45.5,45.5,30.36,ESE,109,0.0,0.0,100,0.00,,,0.00,Wunderground v.1.15,2013-03-11 09:07:00,
2013-03-11 02:17:00,45.2,45.2,30.35,ESE,109,0.0,0.0,100,0.00,,,0.00,Wunderground v.1.15,2013-03-11 09:17:00,
2013-03-11 02:22:00,45.2,45.2,30.35,ESE,109,0.0,0.0,100,0.00,,,0.00,Wunderground v.1.15,2013-03-11 09:22:00,
2013-03-11 02:32:00,45.2,45.2,30.36,ESE,109,0.0,0.0,100,0.00,,,0.00,Wunderground v.1.15,2013-03-11 09:32:00,
2013-03-11 02:42:00,45.2,45.2,30.36,ESE,109,0.0,0.0,100,0.00,,,0.00,Wunderground v.1.15,2013-03-11 09:42:00,
2013-03-11 02:52:00,45.2,45.2,30.36,ENE,76,0.0,0.0,100,0.00,,,0.00,Wunderground v.1.15,2013-03-11 09:52:00,
2013-03-11 03:02:00,45.2,45.2,30.36,ENE,76,0.0,0.0,100,0.00,,,0.00,Wunderground v.1.15,2013-03-11 10:02:00,
2013-03-11 03:07:00,45.1,45.1,30.36,ENE,64,0.0,0.0,100,0.00,,,0.00,Wunderground v.1.15,2013-03-11 10:07:00,
2013-03-11 03:17:00,45.2,45.2,30.36,NE,54,0.0,0.0,100,0.00,,,0.00,Wunderground v.1.15,2013-03-11 10:17:00,
2013-03-11 03:27:00,45.1,45.1,30.36,NE,54,0.0,0.0,100,0.00,,,0.00,Wunderground v.1.15,2013-03-11 10:27:00,
2013-03-11 03:37:00,45.1,45.1,30.36,NE,54,0.0,0.0,100,0.00,,,0.00,Wunderground v.1.15,2013-03-11 10:37:00,
2013-03-11 03:42:00,44.9,44.9,30.36,NE,54,0.0,0.0,100,0.00,,,0.00,Wunderground v.1.15,2013-03-11 10:42:00,
2013-03-11 03:52:00,44.9,44.9,30.35,NE,54,0.0,0.0,100,0.00,,,0.00,Wunderground v.1.15,2013-03-11 10:52:00,
2013-03-11 03:57:00,44.8,44.8,30.35,NE,54,0.0,0.0,100,0.00,,,0.00,Wunderground v.1.15,2013-03-11 10:57:00,
2013-03-11 04:07:00,44.9,44.9,30.35,NE,54,0.0,0.0,100,0.00,,,0.00,Wunderground v.1.15,2013-03-11 11:07:00,
2013-03-11 04:17:00,44.8,44.8,30.35,NE,54,0.0,0.0,100,0.00,,,0.00,Wunderground v.1.15,2013-03-11 11:17:00,
2013-03-11 04:22:00,44.8,44.8,30.35,NE,54,0.0,0.0,100,0.00,,,0.00,Wunderground v.1.15,2013-03-11 11:22:00,
2013-03-11 04:32:00,44.9,44.9,30.34,NE,54,0.0,0.0,100,0.00,,,0.00,Wunderground v.1.15,2013-03-11 11:32:00,
2013-03-11 04:42:00,44.8,44.8,30.34,NE,54,0.0,0.0,100,0.00,,,0.00,Wunderground v.1.15,2013-03-11 11:42:00,
2013-03-11 04:52:00,44.8,44.8,30.33,NE,54,0.0,0.0,100,0.00,,,0.00,Wunderground v.1.15,2013-03-11 11:52:00,
2013-03-11 05:02:00,44.9,44.9,30.33,NE,54,0.0,0.0,100,0.00,,,0.00,Wunderground v.1.15,2013-03-11 12:02:00,
2013-03-11 05:07:00,44.9,44.9,30.33,NE,54,0.0,0.0,100,0.00,,,0.00,Wunderground v.1.15,2013-03-11 12:07:00,
2013-03-11 05:17:00,44.9,44.9,30.33,NE,54,0.0,0.0,100,0.00,,,0.00,Wunderground v.1.15,2013-03-11 12:17:00,
2013-03-11 05:22:00,45.1,45.1,30.33,NE,54,0.0,0.0,100,0.00,,,0.00,Wunderground v.1.15,2013-03-11 12:22:00,
2013-03-11 05:32:00,45.1,45.1,30.33,NE,54,0.0,0.0,100,0.00,,,0.00,Wunderground v.1.15,2013-03-11 12:32:00,
2013-03-11 05:37:00,45.1,45.1,30.33,NE,54,0.0,0.0,100,0.00,,,0.00,Wunderground v.1.15,2013-03-11 12:37:00,
2013-03-11 05:52:00,45.1,45.1,30.33,NE,54,0.0,0.0,100,0.00,,,0.00,Wunderground v.1.15,2013-03-11 12:52:00,
2013-03-11 06:02:00,45.2,45.2,30.33,NE,54,0.0,0.0,100,0.00,,,0.00,Wunderground v.1.15,2013-03-11 13:02:00,
2013-03-11 06:12:00,45.2,45.2,30.33,NE,54,0.0,0.0,100,0.00,,,0.00,Wunderground v.1.15,2013-03-11 13:12:00,
2013-03-11 06:22:00,45.1,45.1,30.33,NE,54,0.0,0.0,100,0.00,,,0.00,Wunderground v.1.15,2013-03-11 13:22:00,
2013-03-11 06:27:00,44.9,44.9,30.33,NE,54,0.0,0.0,100,0.00,,,0.00,Wunderground v.1.15,2013-03-11 13:27:00,
2013-03-11 06:37:00,44.9,44.9,30.32,NE,54,0.0,0.0,100,0.00,,,0.00,Wunderground v.1.15,2013-03-11 13:37:00,
2013-03-11 06:47:00,45.2,45.2,30.33,NE,54,0.0,0.0,100,0.00,,,0.00,Wunderground v.1.15,2013-03-11 13:47:00,
2013-03-11 06:57:00,44.9,44.9,30.33,NE,54,0.0,0.0,100,0.00,,,0.00,Wunderground v.1.15,2013-03-11 13:57:00,
2013-03-11 07:12:00,45.1,45.1,30.31,NE,54,0.0,0.0,100,0.00,,,0.00,Wunderground v.1.15,2013-03-11 14:12:00,
2013-03-11 07:22:00,45.1,45.1,30.32,NE,34,0.0,0.0,100,0.00,,,0.00,Wunderground v.1.15,2013-03-11 14:22:00,
2013-03-11 07:32:00,45.1,45.1,30.31,NE,34,0.0,0.0,100,0.00,,,0.00,Wunderground v.1.15,2013-03-11 14:32:00,
2013-03-11 07:37:00,44.9,44.9,30.31,NE,34,0.0,0.0,100,0.00,,,0.00,Wunderground v.1.15,2013-03-11 14:37:00,
2013-03-11 07:47:00,45.1,45.1,30.31,NE,34,0.0,0.0,100,0.00,,,0.00,Wunderground v.1.15,2013-03-11 14:47:00,
2013-03-11 07:52:00,45.1,45.1,30.31,NE,34,0.0,0.0,100,0.00,,,0.00,Wunderground v.1.15,2013-03-11 14:52:00,
2013-03-11 08:02:00,45.1,45.1,30.31,NE,34,0.0,0.0,100,0.00,,,0.00,Wunderground v.1.15,2013-03-11 15:02:00,
2013-03-11 08:07:00,45.2,45.2,30.31,NNE,31,0.0,0.0,100,0.00,,,0.00,Wunderground v.1.15,2013-03-11 15:07:00,
2013-03-11 08:17:00,45.2,45.2,30.32,NNE,31,0.0,0.0,100,0.00,,,0.00,Wunderground v.1.15,2013-03-11 15:17:00,
2013-03-11 08:22:00,45.2,45.2,30.32,NNE,31,0.0,0.0,100,0.00,,,0.00,Wunderground v.1.15,2013-03-11 15:22:00,
2013-03-11 08:32:00,45.4,45.4,30.32,NNE,31,0.0,0.0,100,0.00,,,0.00,Wunderground v.1.15,2013-03-11 15:32:00,
2013-03-11 08:37:00,45.4,45.4,30.32,NNE,31,0.0,0.0,100,0.00,,,0.00,Wunderground v.1.15,2013-03-11 15:37:00,
2013-03-11 08:47:00,45.5,45.5,30.32,NNE,31,0.0,0.0,100,0.00,,,0.00,Wunderground v.1.15,2013-03-11 15:47:00,
2013-03-11 08:57:00,45.5,45.5,30.32,NNE,31,0.0,0.0,100,0.00,,,0.00,Wunderground v.1.15,2013-03-11 15:57:00,
2013-03-11 09:02:00,45.5,45.5,30.32,NNE,31,0.0,0.0,100,0.00,,,0.00,Wunderground v.1.15,2013-03-11 16:02:00,
2013-03-11 09:07:00,45.5,45.5,30.32,NNE,32,0.0,0.0,100,0.00,,,0.00,Wunderground v.1.15,2013-03-11 16:07:00,
2013-03-11 09:17:00,45.7,45.7,30.32,NNE,32,0.0,0.0,100,0.00,,,0.00,Wunderground v.1.15,2013-03-11 16:17:00,
2013-03-11 09:22:00,45.7,45.7,30.32,NNE,32,0.0,0.0,100,0.00,,,0.00,Wunderground v.1.15,2013-03-11 16:22:00,
2013-03-11 09:32:00,46.1,46.1,30.32,NNE,32,0.0,0.0,100,0.00,,,0.00,Wunderground v.1.15,2013-03-11 16:32:00,
2013-03-11 09:42:00,46.4,46.4,30.32,NNE,32,0.0,0.0,100,0.00,,,0.00,Wunderground v.1.15,2013-03-11 16:42:00,
2013-03-11 09:52:00,46.5,46.5,30.32,NNE,32,0.0,0.0,100,0.00,,,0.00,Wunderground v.1.15,2013-03-11 16:52:00,
2013-03-11 09:57:00,46.5,46.5,30.32,NNE,32,0.0,0.0,100,0.00,,,0.00,Wunderground v.1.15,2013-03-11 16:57:00,
2013-03-11 10:07:00,47.0,47.0,30.32,NNE,32,0.0,0.0,100,0.00,,,0.00,Wunderground v.1.15,2013-03-11 17:07:00,
2013-03-11 10:17:00,47.4,47.4,30.32,NNE,32,0.0,0.0,100,0.00,,,0.00,Wunderground v.1.15,2013-03-11 17:17:00,
2013-03-11 10:22:00,47.6,47.6,30.32,NNE,32,0.0,0.0,100,0.00,,,0.00,Wunderground v.1.15,2013-03-11 17:22:00,
2013-03-11 10:32:00,48.0,48.0,30.32,NNE,32,0.0,0.0,100,0.00,,,0.00,Wunderground v.1.15,2013-03-11 17:32:00,
2013-03-11 10:42:00,47.9,47.9,30.32,NNE,32,0.0,0.0,100,0.00,,,0.00,Wunderground v.1.15,2013-03-11 17:42:00,
2013-03-11 10:47:00,48.0,48.0,30.31,NNE,32,0.0,0.0,100,0.00,,,0.00,Wunderground v.1.15,2013-03-11 17:47:00,
2013-03-11 10:57:00,48.8,48.8,30.31,NNE,32,0.0,0.0,100,0.00,,,0.00,Wunderground v.1.15,2013-03-11 17:57:00,
2013-03-11 11:07:00,49.4,49.4,30.31,NE,38,0.0,0.0,100,0.00,,,0.00,Wunderground v.1.15,2013-03-11 18:07:00,
2013-03-11 11:12:00,49.5,49.5,30.31,East,93,0.0,0.0,100,0.00,,,0.00,Wunderground v.1.15,2013-03-11 18:12:00,
2013-03-11 11:22:00,49.9,49.9,30.31,SSE,154,0.0,0.0,100,0.00,,,0.00,Wunderground v.1.15,2013-03-11 18:22:00,
2013-03-11 11:32:00,50.4,50.4,30.31,SSE,160,0.0,0.0,100,0.00,,,0.00,Wunderground v.1.15,2013-03-11 18:32:00,
2013-03-11 11:37:00,50.7,50.7,30.31,SSE,165,0.0,0.0,100,0.00,,,0.00,Wunderground v.1.15,2013-03-11 18:37:00,
2013-03-11 11:47:00,50.7,50.7,30.30,South,169,0.0,2.0,100,0.00,,,0.00,Wunderground v.1.15,2013-03-11 18:47:00,
2013-03-11 11:52:00,51.0,51.0,30.30,South,169,0.0,0.0,100,0.00,,,0.00,Wunderground v.1.15,2013-03-11 18:52:00,
2013-03-11 12:02:00,51.0,51.0,30.30,South,169,1.0,1.0,100,0.00,,,0.00,Wunderground v.1.15,2013-03-11 19:02:00,
2013-03-11 12:07:00,51.1,51.1,30.30,SSW,208,1.0,6.0,100,0.00,,,0.00,Wunderground v.1.15,2013-03-11 19:07:00,
2013-03-11 12:17:00,51.4,51.4,30.29,South,182,1.0,5.0,100,0.00,,,0.00,Wunderground v.1.15,2013-03-11 19:17:00,
2013-03-11 12:22:00,51.3,51.3,30.29,South,174,3.0,6.0,100,0.00,,,0.00,Wunderground v.1.15,2013-03-11 19:22:00,
2013-03-11 12:32:00,51.4,51.4,30.28,South,176,3.0,3.0,100,0.00,,,0.00,Wunderground v.1.15,2013-03-11 19:32:00,
2013-03-11 12:42:00,52.0,52.0,30.28,SSE,158,1.0,1.0,100,0.00,,,0.00,Wunderground v.1.15,2013-03-11 19:42:00,
2013-03-11 12:52:00,52.6,52.6,30.28,SSE,154,0.0,0.0,100,0.00,,,0.00,Wunderground v.1.15,2013-03-11 19:52:00,
2013-03-11 13:02:00,52.6,52.6,30.28,South,169,1.0,1.0,100,0.00,,,0.00,Wunderground v.1.15,2013-03-11 20:02:00,
2013-03-11 13:07:00,52.6,52.6,30.28,SSE,165,1.0,7.0,100,0.00,,,0.00,Wunderground v.1.15,2013-03-11 20:07:00,
2013-03-11 13:12:00,52.9,52.9,30.28,SSE,158,1.0,1.0,100,0.00,,,0.00,Wunderground v.1.15,2013-03-11 20:12:00,
2013-03-11 13:22:00,53.2,52.9,30.28,SSE,165,3.0,3.0,99,0.00,,,0.00,Wunderground v.1.15,2013-03-11 20:22:00,
2013-03-11 13:27:00,53.5,52.4,30.28,SSW,208,2.0,3.0,96,0.00,,,0.00,Wunderground v.1.15,2013-03-11 20:27:00,
2013-03-11 13:37:00,53.6,51.3,30.27,SSE,155,2.0,2.0,92,0.00,,,0.00,Wunderground v.1.15,2013-03-11 20:37:00,
2013-03-11 13:42:00,53.6,51.6,30.27,SE,133,1.0,7.0,93,0.00,,,0.00,Wunderground v.1.15,2013-03-11 20:42:00,
2013-03-11 13:52:00,53.8,52.7,30.26,SE,141,2.0,5.0,96,0.00,,,0.00,Wunderground v.1.15,2013-03-11 20:52:00,
2013-03-11 14:02:00,53.8,51.5,30.25,SSE,157,1.0,2.0,92,0.00,,,0.00,Wunderground v.1.15,2013-03-11 21:02:00,
2013-03-11 14:07:00,53.8,51.2,30.25,SSE,148,1.0,2.0,91,0.00,,,0.00,Wunderground v.1.15,2013-03-11 21:07:00,
2013-03-11 14:12:00,53.8,50.0,30.25,SSE,155,1.0,1.0,87,0.00,,,0.00,Wunderground v.1.15,2013-03-11 21:12:00,
2013-03-11 14:22:00,53.3,50.1,30.25,SSE,164,1.0,1.0,89,0.00,,,0.00,Wunderground v.1.15,2013-03-11 21:22:00,
2013-03-11 14:32:00,53.1,53.1,30.25,SSE,151,2.0,2.0,100,0.00,,,0.00,Wunderground v.1.15,2013-03-11 21:32:00,
2013-03-11 14:37:00,53.1,53.1,30.25,South,178,1.0,2.0,100,0.00,,,0.00,Wunderground v.1.15,2013-03-11 21:37:00,
2013-03-11 14:47:00,53.3,52.2,30.25,SE,141,1.0,1.0,96,0.00,,,0.00,Wunderground v.1.15,2013-03-11 21:47:00,
2013-03-11 14:57:00,53.3,50.1,30.25,SE,136,1.0,10.0,89,0.00,,,0.00,Wunderground v.1.15,2013-03-11 21:57:00,
2013-03-11 15:02:00,53.3,50.4,30.24,SSE,161,2.0,2.0,90,0.00,,,0.00,Wunderground v.1.15,2013-03-11 22:02:00,
2013-03-11 15:07:00,53.2,50.3,30.24,SSW,210,2.0,2.0,90,0.00,,,0.00,Wunderground v.1.15,2013-03-11 22:07:00,
2013-03-11 15:17:00,53.1,51.7,30.23,South,171,2.0,5.0,95,0.00,,,0.00,Wunderground v.1.15,2013-03-11 22:17:00,
2013-03-11 15:27:00,52.6,52.6,30.23,SSE,161,2.0,2.0,100,0.00,,,0.00,Wunderground v.1.15,2013-03-11 22:27:00,
2013-03-11 15:37:00,52.6,52.6,30.23,South,178,1.0,3.0,100,0.00,,,0.00,Wunderground v.1.15,2013-03-11 22:37:00,
2013-03-11 15:47:00,52.5,52.5,30.22,SSE,160,2.0,2.0,100,0.00,,,0.00,Wunderground v.1.15,2013-03-11 22:47:00,
2013-03-11 15:57:00,52.5,52.5,30.22,SSE,164,1.0,2.0,100,0.00,,,0.00,Wunderground v.1.15,2013-03-11 22:57:00,
2013-03-11 16:02:00,52.5,51.4,30.22,SSE,151,2.0,10.0,96,0.00,,,0.00,Wunderground v.1.15,2013-03-11 23:02:00,
2013-03-11 16:12:00,52.6,50.3,30.22,SSE,148,3.0,3.0,92,0.00,,,0.00,Wunderground v.1.15,2013-03-11 23:12:00,
2013-03-11 16:17:00,52.8,49.9,30.22,SSE,152,2.0,3.0,90,0.00,,,0.00,Wunderground v.1.15,2013-03-11 23:17:00,
2013-03-11 16:22:00,52.8,49.6,30.22,SSE,148,2.0,2.0,89,0.00,,,0.00,Wunderground v.1.15,2013-03-11 23:22:00,
2013-03-11 16:32:00,52.8,49.9,30.21,South,179,2.0,3.0,90,0.00,,,0.00,Wunderground v.1.15,2013-03-11 23:32:00,
2013-03-11 16:37:00,52.8,47.8,30.21,South,184,2.0,3.0,83,0.00,,,0.00,Wunderground v.1.15,2013-03-11 23:37:00,
2013-03-11 16:47:00,52.8,48.4,30.21,SSE,161,2.0,4.0,85,0.00,,,0.00,Wunderground v.1.15,2013-03-11 23:47:00,
2013-03-11 16:52:00,52.9,48.5,30.21,SSE,164,1.0,2.0,85,0.00,,,0.00,Wunderground v.1.15,2013-03-11 23:52:00,
2013-03-11 17:02:00,52.9,48.8,30.20,SSE,147,2.0,10.0,86,0.00,,,0.00,Wunderground v.1.15,2013-03-12 00:02:00,
2013-03-11 17:12:00,52.9,50.6,30.20,SSE,158,1.0,1.0,92,0.00,,,0.00,Wunderground v.1.15,2013-03-12 00:12:00,
2013-03-11 17:22:00,52.9,51.5,30.19,SSE,161,1.0,1.0,95,0.00,,,0.00,Wunderground v.1.15,2013-03-12 00:22:00,
2013-03-11 17:37:00,52.8,50.5,30.19,SSE,148,1.0,10.0,92,0.00,,,0.00,Wunderground v.1.15,2013-03-12 00:37:00,
2013-03-11 17:47:00,52.6,51.8,30.19,South,179,3.0,4.0,97,0.00,,,0.00,Wunderground v.1.15,2013-03-12 00:47:00,
2013-03-11 17:52:00,52.6,51.8,30.19,SSE,164,1.0,1.0,97,0.00,,,0.00,Wunderground v.1.15,2013-03-12 00:52:00,
2013-03-11 18:02:00,52.6,52.6,30.18,SSE,167,0.0,10.0,100,0.00,,,0.00,Wunderground v.1.15,2013-03-12 01:02:00,
2013-03-11 18:07:00,52.5,52.5,30.18,SSE,157,0.0,10.0,100,0.00,,,0.00,Wunderground v.1.15,2013-03-12 01:07:00,
2013-03-11 18:17:00,52.3,52.3,30.18,South,174,1.0,1.0,100,0.00,,,0.00,Wunderground v.1.15,2013-03-12 01:17:00,
2013-03-11 18:27:00,52.0,52.0,30.18,SSE,167,2.0,4.0,100,0.00,,,0.00,Wunderground v.1.15,2013-03-12 01:27:00,
2013-03-11 18:32:00,51.9,51.9,30.18,SSE,164,1.0,1.0,100,0.00,,,0.00,Wunderground v.1.15,2013-03-12 01:32:00,
2013-03-11 18:42:00,51.7,51.7,30.18,SSE,162,0.0,0.0,100,0.00,,,0.00,Wunderground v.1.15,2013-03-12 01:42:00,
2013-03-11 18:52:00,51.6,51.6,30.18,SSE,165,1.0,4.0,100,0.00,,,0.00,Wunderground v.1.15,2013-03-12 01:52:00,
2013-03-11 18:57:00,51.6,51.6,30.18,SSE,154,1.0,4.0,100,0.00,,,0.00,Wunderground v.1.15,2013-03-12 01:57:00,
2013-03-11 19:07:00,51.4,51.4,30.18,South,171,0.0,5.0,100,0.00,,,0.00,Wunderground v.1.15,2013-03-12 02:07:00,
2013-03-11 19:17:00,51.3,51.3,30.18,South,172,1.0,1.0,100,0.00,,,0.00,Wunderground v.1.15,2013-03-12 02:17:00,
2013-03-11 19:27:00,51.3,51.3,30.18,South,186,1.0,1.0,100,0.00,,,0.00,Wunderground v.1.15,2013-03-12 02:27:00,
2013-03-11 19:32:00,51.1,51.1,30.17,SSW,199,1.0,1.0,100,0.00,,,0.00,Wunderground v.1.15,2013-03-12 02:32:00,
2013-03-11 19:42:00,51.1,51.1,30.17,SSE,164,0.0,0.0,100,0.00,,,0.00,Wunderground v.1.15,2013-03-12 02:42:00,
2013-03-11 19:52:00,51.1,51.1,30.17,SSE,162,0.0,0.0,100,0.00,,,0.00,Wunderground v.1.15,2013-03-12 02:52:00,
2013-03-11 19:57:00,51.1,51.1,30.17,SSE,165,0.0,0.0,100,0.00,,,0.00,Wunderground v.1.15,2013-03-12 02:57:00,
2013-03-11 20:07:00,51.0,51.0,30.17,South,175,0.0,3.0,100,0.00,,,0.00,Wunderground v.1.15,2013-03-12 03:07:00,
2013-03-11 20:17:00,50.8,50.8,30.17,SSE,165,0.0,0.0,100,0.00,,,0.00,Wunderground v.1.15,2013-03-12 03:17:00,
2013-03-11 20:27:00,50.8,50.8,30.17,SSE,148,0.0,0.0,100,0.00,,,0.00,Wunderground v.1.15,2013-03-12 03:27:00,
2013-03-11 20:37:00,50.8,50.8,30.17,SSE,154,0.0,0.0,100,0.00,,,0.00,Wunderground v.1.15,2013-03-12 03:37:00,
2013-03-11 20:42:00,50.8,50.8,30.17,SSE,154,0.0,0.0,100,0.00,,,0.00,Wunderground v.1.15,2013-03-12 03:42:00,
2013-03-11 20:52:00,50.8,50.8,30.17,SSE,157,0.0,0.0,100,0.00,,,0.00,Wunderground v.1.15,2013-03-12 03:52:00,
2013-03-11 20:57:00,50.8,50.8,30.17,SSE,158,0.0,0.0,100,0.00,,,0.00,Wunderground v.1.15,2013-03-12 03:57:00,
2013-03-11 21:02:00,50.8,50.8,30.17,SSE,161,0.0,5.0,100,0.00,,,0.00,Wunderground v.1.15,2013-03-12 04:02:00,
2013-03-11 21:12:00,50.8,50.8,30.17,South,176,0.0,0.0,100,0.00,,,0.00,Wunderground v.1.15,2013-03-12 04:12:00,
2013-03-11 21:22:00,50.7,50.7,30.17,SSE,161,0.0,0.0,100,0.00,,,0.00,Wunderground v.1.15,2013-03-12 04:22:00,
2013-03-11 21:27:00,50.7,50.7,30.17,SSE,155,0.0,0.0,100,0.00,,,0.00,Wunderground v.1.15,2013-03-12 04:27:00,
2013-03-11 21:32:00,50.7,50.7,30.17,SSE,167,0.0,0.0,100,0.00,,,0.00,Wunderground v.1.15,2013-03-12 04:32:00,
2013-03-11 21:37:00,50.5,50.5,30.17,SSE,165,0.0,0.0,100,0.00,,,0.00,Wunderground v.1.15,2013-03-12 04:37:00,
2013-03-11 21:47:00,50.5,50.5,30.18,SSE,158,0.0,0.0,100,0.00,,,0.00,Wunderground v.1.15,2013-03-12 04:47:00,
2013-03-11 21:57:00,50.5,50.5,30.18,SSE,155,0.0,0.0,100,0.00,,,0.00,Wunderground v.1.15,2013-03-12 04:57:00,
2013-03-11 22:07:00,50.4,50.4,30.18,SSE,162,0.0,1.0,100,0.00,,,0.00,Wunderground v.1.15,2013-03-12 05:07:00,
2013-03-11 22:17:00,50.4,50.4,30.17,SSE,160,0.0,0.0,100,0.00,,,0.00,Wunderground v.1.15,2013-03-12 05:17:00,
2013-03-11 22:27:00,50.4,50.4,30.17,SE,143,0.0,0.0,100,0.00,,,0.00,Wunderground v.1.15,2013-03-12 05:27:00,
2013-03-11 22:32:00,50.4,50.4,30.17,South,189,0.0,0.0,100,0.00,,,0.01,Wunderground v.1.15,2013-03-12 05:32:00,
2013-03-11 22:42:00,50.4,50.4,30.17,SSE,155,0.0,1.0,100,0.00,,,0.01,Wunderground v.1.15,2013-03-12 05:42:00,
2013-03-11 22:47:00,50.4,50.4,30.17,SSE,164,0.0,1.0,100,0.00,,,0.01,Wunderground v.1.15,2013-03-12 05:47:00,
2013-03-11 22:57:00,50.4,50.4,30.17,SSE,148,1.0,1.0,100,0.00,,,0.01,Wunderground v.1.15,2013-03-12 05:57:00,
2013-03-11 23:07:00,50.4,50.4,30.16,SSE,157,1.0,6.0,100,0.00,,,0.01,Wunderground v.1.15,2013-03-12 06:07:00,
2013-03-11 23:17:00,50.4,50.4,30.16,SSE,157,1.0,1.0,100,0.00,,,0.01,Wunderground v.1.15,2013-03-12 06:17:00,
2013-03-11 23:27:00,50.4,50.4,30.16,SSE,152,0.0,0.0,100,0.00,,,0.01,Wunderground v.1.15,2013-03-12 06:27:00,
2013-03-11 23:37:00,50.4,50.4,30.16,SE,140,0.0,0.0,100,0.00,,,0.01,Wunderground v.1.15,2013-03-12 06:37:00,
2013-03-11 23:42:00,50.4,50.4,30.16,SSE,154,0.0,0.0,100,0.00,,,0.01,Wunderground v.1.15,2013-03-12 06:42:00,
2013-03-11 23:52:00,50.4,50.4,30.15,SSE,154,0.0,2.0,100,0.00,,,0.01,Wunderground v.1.15,2013-03-12 06:52:00,